Arzamas, Russia
Current Conditions -  °F | °C
As of 6:00 AM on Wednesday 22 Oct 2014 (Local Time) from UWGG Reporting Station
Light Snow Light Snow  
Wind Chill: -13°   Ceiling: 1100
Heat Index: -7°   Visibility: 3mi
Dew Point: -8°   Wind: 9mph
Humidity: 93%   Direction: 320°NW
Pressure: 29.5"   Gusts: NA
Location:  55.38°N, 43.82°E
Report Text: UWGG 220300Z 32004MPS 5000 -SN OVC011 M07/M08 Q0999 TEMPO31007G14MPS 0500 +SN BLSN OVC005
Loading
Personal Weather Stations






























Interactive Weather Map
Tropical Storm Tracking
New forecast layout! Learn more

10-Day Weather Forecast

Advertisements
Track Severe Weather on mobile